Time;durP1;ratioP1;P1;durP2;ratioP2;P2;SDS_P1;SDS_P2;PMS_P1;PMS_P2;Temp;Humidity;BMP_temperature;BMP_pressure;BME280_temperature;BME280_humidity;BME280_pressure;Samples;Min_cycle;Max_cycle;Signal;HPM_P1;HPM_P2
2023/04/01 00:00:10;;;;;;;9.68;5.40;;;14.80;72.50;;;;;;5000559;28;20046;-75
2023/04/01 00:02:38;;;;;;;11.52;6.43;;;14.90;72.80;;;;;;5010512;28;20061;-72
2023/04/01 00:05:06;;;;;;;9.80;5.40;;;14.80;72.70;;;;;;4991014;28;20550;-73
2023/04/01 00:07:37;;;;;;;13.00;5.63;;;14.70;73.40;;;;;;5010928;28;20049;-73
2023/04/01 00:10:09;;;;;;;11.57;5.53;;;14.90;73.20;;;;;;4996805;28;20054;-72
2023/04/01 00:12:37;;;;;;;12.07;5.82;;;14.80;73.10;;;;;;5001522;28;20117;-74
2023/04/01 00:15:09;;;;;;;14.35;5.60;;;14.90;73.10;;;;;;4991468;28;20056;-75
2023/04/01 00:17:37;;;;;;;11.32;5.97;;;14.70;73.60;;;;;;4991187;28;20049;-74
2023/04/01 00:20:08;;;;;;;13.50;5.97;;;14.50;74.90;;;;;;5007401;28;20049;-72
2023/04/01 00:22:35;;;;;;;10.95;5.70;;;14.20;74.70;;;;;;4992707;28;20375;-70
2023/04/01 00:25:04;;;;;;;9.60;5.65;;;14.00;76.30;;;;;;4992788;28;20044;-72
2023/04/01 00:27:31;;;;;;;12.23;5.80;;;14.20;76.00;;;;;;4992557;28;20048;-71
2023/04/01 00:29:58;;;;;;;9.77;5.40;;;14.40;75.50;;;;;;5007176;28;20387;-74
2023/04/01 00:32:26;;;;;;;8.65;5.22;;;14.20;75.10;;;;;;4992260;28;20085;-72
2023/04/01 00:34:53;;;;;;;11.07;5.93;;;14.30;74.80;;;;;;4998961;28;20037;-74
2023/04/01 00:37:20;;;;;;;11.05;5.57;;;14.20;75.60;;;;;;5010154;28;20039;-72
2023/04/01 00:39:48;;;;;;;9.95;5.35;;;14.40;74.40;;;;;;5041151;23;20103;-75
2023/04/01 00:42:15;;;;;;;10.13;5.15;;;14.40;74.20;;;;;;5010300;28;20040;-74
2023/04/01 00:44:45;;;;;;;7.60;4.88;;;14.50;73.60;;;;;;5030255;28;20091;-72
2023/04/01 00:47:12;;;;;;;8.55;5.38;;;14.40;73.80;;;;;;5011615;28;20059;-71
2023/04/01 00:49:43;;;;;;;9.98;5.45;;;14.30;74.90;;;;;;5016662;28;20552;-73
2023/04/01 00:52:17;;;;;;;9.00;5.32;;;14.20;75.20;;;;;;5015744;28;20041;-72
2023/04/01 00:54:50;;;;;;;9.50;4.57;;;14.30;75.70;;;;;;5021009;28;20053;-73
2023/04/01 00:57:29;;;;;;;8.75;4.72;;;14.40;73.90;;;;;;5037138;28;20048;-74
2023/04/01 00:59:57;;;;;;;9.63;4.50;;;14.50;72.90;;;;;;5022187;28;20480;-73
2023/04/01 01:02:25;;;;;;;10.15;5.13;;;14.50;72.90;;;;;;5035204;28;20354;-73
2023/04/01 01:05:01;;;;;;;9.20;4.32;;;14.70;71.50;;;;;;5033263;28;20048;-74
2023/04/01 01:07:40;;;;;;;8.70;4.32;;;14.70;71.70;;;;;;5013910;28;20397;-74
2023/04/01 01:10:37;;;;;;;7.03;5.03;;;14.50;72.10;;;;;;5013114;28;20053;-75
2023/04/01 01:13:28;;;;;;;9.25;4.07;;;14.50;72.20;;;;;;4997305;28;20049;-74
2023/04/01 01:16:35;;;;;;;7.70;4.40;;;14.60;71.80;;;;;;5023357;28;20045;-75
2023/04/01 01:19:17;;;;;;;9.27;4.60;;;14.50;72.40;;;;;;4943322;28;20137;-74
2023/04/01 01:22:07;;;;;;;8.13;5.32;;;14.40;73.00;;;;;;5024511;28;20096;-74
2023/04/01 01:24:52;;;;;;;7.85;4.60;;;14.40;73.60;;;;;;4997428;28;20386;-74
2023/04/01 01:27:21;;;;;;;10.93;4.60;;;14.40;73.50;;;;;;5041149;28;20041;-73
2023/04/01 01:29:51;;;;;;;7.57;5.05;;;14.20;74.50;;;;;;5032527;28;20088;-71
2023/04/01 01:32:25;;;;;;;6.65;4.43;;;14.30;74.00;;;;;;5042726;28;20033;-73
2023/04/01 01:35:14;;;;;;;10.52;4.88;;;14.30;74.40;;;;;;5044285;28;20053;-73
2023/04/01 01:37:45;;;;;;;6.05;3.92;;;14.30;74.30;;;;;;5030117;28;20043;-73
2023/04/01 01:40:14;;;;;;;8.18;4.30;;;14.40;73.20;;;;;;5050555;28;20049;-74
2023/04/01 01:42:47;;;;;;;10.30;3.80;;;14.40;73.30;;;;;;5019289;28;20430;-73
2023/04/01 01:45:18;;;;;;;7.68;4.13;;;14.40;72.90;;;;;;5031749;28;20045;-73
2023/04/01 01:47:45;;;;;;;;;;;14.50;73.00;;;;;;5034494;28;20037;-73
2023/04/01 01:50:14;;;;;;;8.57;4.55;;;14.50;73.50;;;;;;5050054;28;19978;-74
2023/04/01 01:52:41;;;;;;;10.88;5.00;;;14.30;74.40;;;;;;5054252;28;20048;-71
2023/04/01 01:55:29;;;;;;;7.18;4.40;;;14.30;75.70;;;;;;5038263;28;20124;-73
2023/04/01 01:58:00;;;;;;;11.18;5.15;;;14.30;75.80;;;;;;5023893;28;20029;-73
2023/04/01 02:00:28;;;;;;;9.40;5.75;;;14.10;76.90;;;;;;5021235;28;20140;-73
2023/04/01 02:02:58;;;;;;;6.50;4.30;;;14.00;77.40;;;;;;5016658;28;20042;-74
2023/04/01 02:05:30;;;;;;;7.78;5.00;;;14.00;77.50;;;;;;5034263;28;20515;-71
2023/04/01 02:08:21;;;;;;;9.98;5.05;;;14.00;77.20;;;;;;5007616;28;20487;-72
2023/04/01 02:11:07;;;;;;;10.57;4.72;;;14.00;76.60;;;;;;4996138;28;20050;-71
2023/04/01 02:13:40;;;;;;;8.27;4.70;;;14.10;76.40;;;;;;5034530;28;20040;-72
2023/04/01 02:16:20;;;;;;;7.22;4.90;;;14.10;76.20;;;;;;5016627;28;20124;-73
2023/04/01 02:18:54;;;;;;;11.05;5.30;;;14.20;76.00;;;;;;5034009;28;20075;-73
2023/04/01 02:21:24;;;;;;;;;;;14.10;76.50;;;;;;5017233;28;20485;-72
2023/04/01 02:23:53;;;;;;;7.97;5.05;;;14.00;76.90;;;;;;5016569;28;19925;-71
2023/04/01 02:26:21;;;;;;;11.20;5.18;;;13.90;77.80;;;;;;5034158;28;20172;-72
2023/04/01 02:28:50;;;;;;;7.57;5.30;;;13.70;78.60;;;;;;5026621;28;20388;-73
2023/04/01 02:31:18;;;;;;;10.07;5.47;;;13.80;78.70;;;;;;5036461;28;20042;-72
2023/04/01 02:34:04;;;;;;;10.73;5.00;;;13.80;78.70;;;;;;5015971;28;20133;-74
2023/04/01 02:36:34;;;;;;;10.70;5.82;;;13.90;79.00;;;;;;5041627;28;20408;-73
2023/04/01 02:39:04;;;;;;;8.55;5.28;;;13.90;78.70;;;;;;5031576;28;20056;-73
2023/04/01 02:41:31;;;;;;;7.55;4.88;;;13.90;78.30;;;;;;5032992;28;20064;-73
2023/04/01 02:43:59;;;;;;;7.20;5.25;;;13.90;78.50;;;;;;5031314;28;20050;-74
2023/04/01 02:46:26;;;;;;;7.72;4.50;;;13.80;78.50;;;;;;5033123;28;20041;-73
2023/04/01 02:48:53;;;;;;;9.57;5.18;;;13.90;78.60;;;;;;5028639;28;20147;-74
2023/04/01 02:51:20;;;;;;;10.15;5.00;;;13.80;78.20;;;;;;5022491;28;20037;-74
2023/04/01 02:53:47;;;;;;;10.68;5.55;;;13.90;78.20;;;;;;5028156;28;20092;-74
2023/04/01 02:56:15;;;;;;;7.90;4.68;;;13.80;78.30;;;;;;5012324;28;20133;-73
2023/04/01 02:58:42;;;;;;;8.70;4.60;;;13.80;78.40;;;;;;5013526;28;20478;-74
2023/04/01 03:01:10;;;;;;;6.82;4.65;;;13.90;78.30;;;;;;5008170;28;20038;-72
2023/04/01 03:03:37;;;;;;;11.00;5.28;;;13.90;77.70;;;;;;5026782;28;20045;-74
2023/04/01 03:06:10;;;;;;;9.00;4.95;;;13.80;78.00;;;;;;5031421;28;20125;-71
2023/04/01 03:08:37;;;;;;;8.55;5.00;;;13.80;78.10;;;;;;5032493;28;20115;-70
2023/04/01 03:11:05;;;;;;;12.02;5.03;;;13.80;77.90;;;;;;5032454;28;20117;-69
2023/04/01 03:13:32;;;;;;;9.13;5.20;;;13.80;77.90;;;;;;5032212;28;20041;-74
2023/04/01 03:15:59;;;;;;;8.55;4.97;;;13.90;77.90;;;;;;5023012;28;20050;-72
2023/04/01 03:18:27;;;;;;;9.07;4.90;;;13.90;77.80;;;;;;5025444;28;20034;-74
2023/04/01 03:20:54;;;;;;;9.57;5.15;;;13.80;77.40;;;;;;5023787;28;20056;-72
2023/04/01 03:23:21;;;;;;;8.15;4.80;;;13.80;77.70;;;;;;5031566;28;20393;-73
2023/04/01 03:25:48;;;;;;;11.63;4.88;;;13.80;77.60;;;;;;5032390;28;20057;-74
2023/04/01 03:28:16;;;;;;;7.88;4.60;;;13.80;77.80;;;;;;5030638;28;20443;-72
2023/04/01 03:30:43;;;;;;;16.20;6.47;;;13.80;77.70;;;;;;5019621;28;20050;-73
2023/04/01 03:33:10;;;;;;;8.75;4.60;;;13.80;77.90;;;;;;5031121;28;20041;-72
2023/04/01 03:35:37;;;;;;;7.22;4.82;;;13.70;78.20;;;;;;5030548;28;20046;-72
2023/04/01 03:38:04;;;;;;;8.73;4.78;;;13.80;78.30;;;;;;5028053;28;20128;-71
2023/04/01 03:40:32;;;;;;;8.13;5.45;;;13.70;78.70;;;;;;5033798;28;20044;-73
2023/04/01 03:43:00;;;;;;;12.05;5.13;;;13.70;78.70;;;;;;5033167;28;20477;-74
2023/04/01 03:45:27;;;;;;;7.47;4.32;;;13.70;78.70;;;;;;5029413;28;20044;-71
2023/04/01 03:47:54;;;;;;;8.25;4.88;;;13.50;78.70;;;;;;5025999;28;20365;-73
2023/04/01 03:50:22;;;;;;;11.90;4.63;;;13.60;78.70;;;;;;5019683;28;20048;-72
2023/04/01 03:52:49;;;;;;;7.70;4.93;;;13.60;78.70;;;;;;5024335;28;20045;-74
2023/04/01 03:55:17;;;;;;;10.43;4.47;;;13.60;78.70;;;;;;5018476;28;20054;-72
2023/04/01 03:57:45;;;;;;;6.50;4.30;;;13.60;79.00;;;;;;5027228;28;20037;-74
2023/04/01 04:00:12;;;;;;;6.25;4.30;;;13.60;78.50;;;;;;4998259;28;20041;-73
2023/04/01 04:02:39;;;;;;;8.77;4.57;;;13.60;78.40;;;;;;5033499;28;20049;-73
2023/04/01 04:05:07;;;;;;;9.77;5.78;;;13.50;79.50;;;;;;5037833;28;20041;-74
2023/04/01 04:07:35;;;;;;;6.95;4.57;;;13.40;79.70;;;;;;5051484;28;20052;-74
2023/04/01 04:10:03;;;;;;;7.57;4.57;;;13.40;79.80;;;;;;5036640;28;20042;-73
2023/04/01 04:12:30;;;;;;;8.52;4.80;;;13.40;80.80;;;;;;4997738;28;20408;-74
2023/04/01 04:15:01;;;;;;;9.98;4.85;;;13.20;82.30;;;;;;5031351;28;20493;-73
2023/04/01 04:17:31;;;;;;;7.90;4.68;;;13.00;82.70;;;;;;5007939;28;20136;-73
2023/04/01 04:19:58;;;;;;;9.43;5.30;;;13.10;82.70;;;;;;5034738;28;20044;-73
2023/04/01 04:22:26;;;;;;;9.57;4.70;;;13.00;83.20;;;;;;5008422;28;20095;-73
2023/04/01 04:24:53;;;;;;;8.98;4.88;;;13.00;83.70;;;;;;5000639;28;20707;-73
2023/04/01 04:27:20;;;;;;;9.07;5.18;;;12.90;84.20;;;;;;5031246;28;20041;-73
2023/04/01 04:29:47;;;;;;;10.35;4.95;;;12.80;84.50;;;;;;5031582;28;20029;-73
2023/04/01 04:32:15;;;;;;;10.32;4.97;;;12.70;85.40;;;;;;5025076;28;20045;-73
2023/04/01 04:34:42;;;;;;;9.38;5.80;;;12.70;86.20;;;;;;5037683;28;20539;-73
2023/04/01 04:37:09;;;;;;;7.32;5.43;;;12.80;86.80;;;;;;5013915;28;20056;-73
2023/04/01 04:39:36;;;;;;;10.98;6.03;;;12.70;87.10;;;;;;5030760;28;20105;-74
2023/04/01 04:42:05;;;;;;;10.50;5.55;;;12.50;88.80;;;;;;5044457;28;20045;-73
2023/04/01 04:44:32;;;;;;;14.63;6.78;;;12.60;88.80;;;;;;5043263;28;20501;-70
2023/04/01 04:47:00;;;;;;;10.98;6.28;;;12.50;88.50;;;;;;5031048;28;20041;-73
2023/04/01 04:49:32;;;;;;;10.75;5.95;;;12.20;90.10;;;;;;4998419;28;20060;-72
2023/04/01 04:51:59;;;;;;;8.98;5.82;;;12.40;90.20;;;;;;5046526;28;20045;-73
2023/04/01 04:54:26;;;;;;;11.38;5.85;;;12.60;90.10;;;;;;5040933;28;20042;-73
2023/04/01 04:56:54;;;;;;;15.23;6.40;;;12.80;90.10;;;;;;5043142;28;20044;-73
2023/04/01 04:59:22;;;;;;;17.80;6.28;;;12.60;90.80;;;;;;5037109;28;20037;-74
2023/04/01 05:01:49;;;;;;;12.90;6.18;;;12.70;90.80;;;;;;5016886;28;20053;-73
2023/04/01 05:04:17;;;;;;;15.57;6.47;;;12.90;90.90;;;;;;5032000;28;20412;-73
2023/04/01 05:06:44;;;;;;;11.70;6.90;;;13.00;91.00;;;;;;5031558;28;20068;-73
2023/04/01 05:09:12;;;;;;;10.10;6.32;;;13.10;90.80;;;;;;5037762;28;20045;-73
2023/04/01 05:11:40;;;;;;;14.98;6.22;;;13.20;90.80;;;;;;5037154;28;20092;-74
2023/04/01 05:14:13;;;;;;;11.35;6.53;;;13.00;91.10;;;;;;5021928;28;20041;-75
2023/04/01 05:16:40;;;;;;;13.85;7.45;;;13.10;91.50;;;;;;5038790;28;20044;-75
2023/04/01 05:19:09;;;;;;;11.13;7.03;;;13.20;91.60;;;;;;5033621;28;20037;-73
2023/04/01 05:21:36;;;;;;;17.17;7.45;;;13.10;91.80;;;;;;5038552;28;20037;-73
2023/04/01 05:24:09;;;;;;;14.60;7.95;;;13.20;91.30;;;;;;5050261;28;20044;-73
2023/04/01 05:26:36;;;;;;;14.75;6.32;;;13.20;91.10;;;;;;5036008;28;20065;-75
2023/04/01 05:29:05;;;;;;;12.82;6.95;;;13.20;91.40;;;;;;5047567;28;20393;-75
2023/04/01 05:31:32;;;;;;;17.38;6.90;;;13.40;91.60;;;;;;5042055;28;20041;-74
2023/04/01 05:33:59;;;;;;;12.23;6.70;;;13.20;91.50;;;;;;5023812;28;20049;-73
2023/04/01 05:36:26;;;;;;;13.82;7.57;;;13.30;91.70;;;;;;5035446;28;20393;-72
2023/04/01 05:38:57;;;;;;;10.65;6.65;;;12.80;92.10;;;;;;5047157;28;20049;-72
2023/04/01 05:41:24;;;;;;;13.00;7.35;;;13.00;92.20;;;;;;5025202;28;20055;-75
2023/04/01 05:43:51;;;;;;;13.95;7.30;;;13.20;91.80;;;;;;5034714;28;20132;-74
2023/04/01 05:46:18;;;;;;;15.82;7.25;;;13.40;91.50;;;;;;5034293;28;20489;-72
2023/04/01 05:48:46;;;;;;;15.35;6.95;;;13.30;91.60;;;;;;5017680;28;20069;-72
2023/04/01 05:51:30;;;;;;;12.65;6.32;;;13.50;91.00;;;;;;5034394;28;20047;-74
2023/04/01 05:53:58;;;;;;;18.23;7.13;;;13.30;91.10;;;;;;5029339;28;20041;-77
2023/04/01 05:56:26;;;;;;;16.27;6.40;;;13.10;91.30;;;;;;5008962;28;20045;-73
2023/04/01 05:59:01;;;;;;;11.65;6.70;;;13.30;91.60;;;;;;5036239;28;20400;-75
2023/04/01 06:01:29;;;;;;;13.90;6.25;;;13.40;91.40;;;;;;5036232;28;20144;-72
2023/04/01 06:03:56;;;;;;;14.75;7.75;;;13.60;91.10;;;;;;5035858;28;20499;-72
2023/04/01 06:06:27;;;;;;;12.75;7.05;;;13.60;91.10;;;;;;5035530;28;20106;-75
2023/04/01 06:08:57;;;;;;;16.98;7.57;;;13.90;91.10;;;;;;5024834;28;20401;-77
2023/04/01 06:11:55;;;;;;;16.55;7.45;;;13.90;90.90;;;;;;5046850;28;20064;-78
2023/04/01 06:14:37;;;;;;;80.13;42.58;;;13.80;92.00;;;;;;5032796;28;20060;-78
2023/04/01 06:17:42;;;;;;;47.25;29.17;;;14.30;93.80;;;;;;5009903;23;20070;-76
2023/04/01 06:21:07;;;;;;;39.85;25.17;;;14.40;91.80;;;;;;5010154;22;20049;-78
2023/04/01 06:23:59;;;;;;;33.55;20.85;;;14.50;92.50;;;;;;5008339;28;20053;-73
2023/04/01 06:26:48;;;;;;;27.50;17.40;;;14.60;91.50;;;;;;5020012;28;20037;-78
2023/04/01 06:29:35;;;;;;;39.65;22.35;;;14.90;91.20;;;;;;5053646;28;20048;-80
2023/04/01 06:33:02;;;;;;;74.97;42.42;;;14.60;90.10;;;;;;5021263;28;20375;-76
2023/04/01 06:35:46;;;;;;;16.58;10.65;;;14.70;88.90;;;;;;4949323;28;20047;-76
2023/04/01 06:38:55;;;;;;;22.70;11.23;;;14.40;89.40;;;;;;5020952;23;20049;-76
2023/04/01 06:41:32;;;;;;;87.53;50.13;;;14.60;89.40;;;;;;5008743;28;20193;-74
2023/04/01 06:44:18;;;;;;;32.40;21.95;;;14.50;88.90;;;;;;5019039;28;20543;-73
2023/04/01 06:47:07;;;;;;;10.43;6.97;;;14.70;87.80;;;;;;5012716;28;20477;-72
2023/04/01 06:49:58;;;;;;;7.63;4.80;;;14.80;86.00;;;;;;5013500;28;20046;-73
2023/04/01 06:52:47;;;;;;;8.77;4.57;;;14.80;85.00;;;;;;5017090;28;20033;-72
2023/04/01 06:55:23;;;;;;;9.50;5.50;;;14.80;85.50;;;;;;4999874;28;20037;-75
2023/04/01 06:57:55;;;;;;;10.32;5.53;;;14.60;86.30;;;;;;5029759;28;20037;-73
2023/04/01 07:00:25;;;;;;;9.35;4.60;;;14.60;87.20;;;;;;5016008;28;20469;-75
2023/04/01 07:03:18;;;;;;;11.35;5.18;;;14.60;87.80;;;;;;5023790;28;20096;-74
2023/04/01 07:05:46;;;;;;;15.25;5.68;;;14.80;86.50;;;;;;5017320;28;20126;-72
2023/04/01 07:08:27;;;;;;;11.93;5.25;;;14.80;87.00;;;;;;5012534;28;20034;-72
2023/04/01 07:11:06;;;;;;;11.30;5.00;;;14.90;86.30;;;;;;5013008;28;20066;-77
2023/04/01 07:13:41;;;;;;;11.40;4.93;;;15.00;86.50;;;;;;5011958;28;20037;-75
2023/04/01 07:16:29;;;;;;;9.43;4.93;;;15.10;86.60;;;;;;5019063;28;20042;-73
2023/04/01 07:19:35;;;;;;;9.68;3.30;;;15.10;87.20;;;;;;5019235;28;20489;-74
2023/04/01 07:22:29;;;;;;;7.68;3.85;;;15.20;85.90;;;;;;4994654;28;20046;-77
2023/04/01 07:25:01;;;;;;;9.68;4.10;;;15.00;85.90;;;;;;5016989;28;20037;-84
2023/04/01 07:27:31;;;;;;;8.65;3.88;;;15.10;87.10;;;;;;5015565;28;20541;-78
2023/04/01 07:30:00;;;;;;;9.37;5.37;;;15.30;86.90;;;;;;5014769;28;20425;-77
2023/04/01 07:32:46;;;;;;;79.75;46.78;;;15.30;87.20;;;;;;5011412;28;20137;-81
2023/04/01 07:35:52;;;;;;;33.72;20.23;;;15.60;88.50;;;;;;5018324;28;20474;-80
2023/04/01 07:38:38;;;;;;;61.20;34.75;;;15.50;86.70;;;;;;4977933;28;20053;-75
2023/04/01 07:41:15;;;;;;;13.68;8.05;;;15.70;85.70;;;;;;5024283;28;20431;-75
2023/04/01 07:44:02;;;;;;;11.70;6.60;;;15.80;85.90;;;;;;5028829;28;20066;-76
2023/04/01 07:46:57;;;;;;;10.27;5.40;;;15.80;86.40;;;;;;5008762;28;20048;-75
2023/04/01 07:49:40;;;;;;;11.73;4.85;;;15.50;86.60;;;;;;5012984;28;20484;-71
2023/04/01 07:52:33;;;;;;;12.73;5.20;;;15.50;87.70;;;;;;5011848;28;20034;-73
2023/04/01 07:55:16;;;;;;;44.50;23.55;;;15.80;87.80;;;;;;5017644;28;20508;-80
2023/04/01 07:58:15;;;;;;;29.75;17.38;;;16.00;87.30;;;;;;5006949;28;20038;-81
2023/04/01 08:01:30;;;;;;;12.52;6.00;;;16.20;87.40;;;;;;5007533;28;20371;-71
2023/04/01 08:03:58;;;;;;;13.05;4.60;;;16.20;86.40;;;;;;4919496;29;20070;-75
2023/04/01 08:06:45;;;;;;;8.40;4.00;;;16.20;87.00;;;;;;5022920;22;20045;-74
2023/04/01 08:09:41;;;;;;;10.50;4.45;;;16.40;85.70;;;;;;5017985;28;20056;-76
2023/04/01 08:12:11;;;;;;;11.35;4.80;;;16.40;86.70;;;;;;5018009;28;20390;-76
2023/04/01 08:15:11;;;;;;;8.93;4.93;;;16.70;85.70;;;;;;5025810;28;20032;-77
2023/04/01 08:17:45;;;;;;;9.27;4.60;;;17.00;85.80;;;;;;5025591;28;20092;-75
2023/04/01 08:20:19;;;;;;;13.68;5.10;;;17.40;84.80;;;;;;5015073;28;20041;-74
2023/04/01 08:22:53;;;;;;;8.30;4.05;;;17.60;83.60;;;;;;5015825;28;20037;-76
2023/04/01 08:25:25;;;;;;;13.60;5.68;;;17.80;83.50;;;;;;5010019;28;20056;-76
2023/04/01 08:28:15;;;;;;;10.40;4.60;;;18.00;82.60;;;;;;5010235;28;20772;-75
2023/04/01 08:30:49;;;;;;;10.88;4.53;;;18.20;81.20;;;;;;5010434;28;20057;-76
2023/04/01 08:33:19;;;;;;;7.88;3.20;;;18.40;79.50;;;;;;5017251;28;20046;-75
2023/04/01 08:35:56;;;;;;;7.72;3.28;;;18.20;77.70;;;;;;5020413;28;20053;-71
2023/04/01 08:38:41;;;;;;;10.18;3.28;;;18.50;77.70;;;;;;5027956;28;20072;-77
2023/04/01 08:41:34;;;;;;;10.20;3.25;;;18.50;76.90;;;;;;5018327;28;20044;-77
2023/04/01 08:44:25;;;;;;;8.55;3.10;;;18.40;77.00;;;;;;5023342;28;20048;-76
2023/04/01 08:47:16;;;;;;;16.08;2.83;;;18.30;77.10;;;;;;5007023;28;20508;-76
2023/04/01 08:50:08;;;;;;;5.68;2.92;;;18.20;77.10;;;;;;5016294;28;20033;-77
2023/04/01 08:52:41;;;;;;;7.10;3.30;;;18.40;76.20;;;;;;4999300;28;20378;-76
2023/04/01 08:55:30;;;;;;;12.02;3.50;;;18.40;76.00;;;;;;5024394;28;20103;-73
2023/04/01 08:58:16;;;;;;;8.75;3.47;;;18.70;76.30;;;;;;5030529;28;20058;-74
2023/04/01 09:00:53;;;;;;;7.22;2.95;;;18.80;76.50;;;;;;5025991;28;20129;-73
2023/04/01 09:03:38;;;;;;;6.00;2.72;;;18.60;75.60;;;;;;5016230;28;20430;-74
2023/04/01 09:06:27;;;;;;;6.55;3.05;;;18.30;75.40;;;;;;5011759;28;20049;-74
2023/04/01 09:08:57;;;;;;;7.55;3.42;;;18.20;75.80;;;;;;5010063;28;20133;-77
2023/04/01 09:11:49;;;;;;;5.18;2.85;;;18.20;76.60;;;;;;5011170;28;20133;-75
2023/04/01 09:14:49;;;;;;;8.43;2.88;;;18.30;75.70;;;;;;5017519;28;20046;-74
2023/04/01 09:17:46;;;;;;;7.53;3.50;;;18.30;75.70;;;;;;5023383;28;20409;-75
2023/04/01 09:20:35;;;;;;;8.68;3.30;;;18.50;75.80;;;;;;5023383;28;20042;-74
2023/04/01 09:23:24;;;;;;;10.20;3.30;;;18.40;75.10;;;;;;5010835;28;20371;-74
2023/04/01 09:25:57;;;;;;;8.73;3.08;;;18.30;75.80;;;;;;5011230;28;20056;-76
2023/04/01 09:28:38;;;;;;;10.45;3.65;;;18.10;76.10;;;;;;5018567;28;20087;-74
2023/04/01 09:31:38;;;;;;;10.10;3.53;;;18.00;76.30;;;;;;5011094;28;20034;-73
2023/04/01 09:34:59;;;;;;;15.90;3.85;;;17.80;77.00;;;;;;5011014;28;20042;-77
2023/04/01 09:37:34;;;;;;;7.15;3.17;;;17.70;76.20;;;;;;4956169;28;20055;-77
2023/04/01 09:40:31;;;;;;;12.45;4.60;;;17.50;78.50;;;;;;5010618;28;20065;-71
2023/04/01 09:43:20;;;;;;;15.27;3.90;;;17.50;79.00;;;;;;5010786;28;20111;-76
2023/04/01 09:45:53;;;;;;;8.50;3.65;;;17.40;80.90;;;;;;5018983;28;20493;-75
2023/04/01 09:48:51;;;;;;;6.32;3.35;;;17.30;81.20;;;;;;5015146;28;20037;-72
2023/04/01 09:51:52;;;;;;;11.10;4.70;;;17.30;79.10;;;;;;5014953;28;20448;-74
2023/04/01 09:54:34;;;;;;;10.40;4.32;;;17.40;82.40;;;;;;5001597;28;20054;-73
2023/04/01 09:57:22;;;;;;;10.15;3.60;;;17.30;85.30;;;;;;5017406;28;20056;-70
2023/04/01 10:00:27;;;;;;;10.90;3.47;;;17.30;86.70;;;;;;5010461;28;20628;-73
2023/04/01 10:03:10;;;;;;;8.13;3.60;;;17.20;88.80;;;;;;5010693;28;20076;-77
2023/04/01 10:06:30;;;;;;;9.30;3.50;;;17.10;90.10;;;;;;5005664;28;20537;-72
2023/04/01 10:09:00;;;;;;;7.03;3.50;;;16.90;90.80;;;;;;5008483;28;20406;-77
2023/04/01 10:11:34;;;;;;;7.75;3.65;;;16.90;91.40;;;;;;5010950;28;20048;-74
2023/04/01 10:14:27;;;;;;;7.53;4.03;;;16.90;91.60;;;;;;5013983;28;20050;-73
2023/04/01 10:17:08;;;;;;;8.25;3.63;;;17.00;92.30;;;;;;5013999;28;20029;-75
2023/04/01 10:20:08;;;;;;;9.45;4.05;;;17.20;92.20;;;;;;5012974;23;20152;-73
2023/04/01 10:23:08;;;;;;;9.90;3.60;;;17.10;92.70;;;;;;5015892;28;20036;-73
2023/04/01 10:25:38;;;;;;;8.63;4.75;;;17.10;93.50;;;;;;5027340;28;20132;-74
2023/04/01 10:28:19;;;;;;;11.30;4.13;;;17.30;93.70;;;;;;5022877;28;20034;-74
2023/04/01 10:31:11;;;;;;;11.93;4.18;;;16.90;92.00;;;;;;5014659;28;20088;-72
2023/04/01 10:34:01;;;;;;;11.25;3.95;;;17.50;91.40;;;;;;5013584;28;20052;-74
2023/04/01 10:36:51;;;;;;;9.75;2.60;;;17.70;91.50;;;;;;5004106;28;20056;-73
2023/04/01 10:39:40;;;;;;;4.17;2.40;;;17.70;84.10;;;;;;5001343;28;20445;-74
2023/04/01 10:42:22;;;;;;;7.95;2.78;;;17.90;86.20;;;;;;5031238;28;20050;-74
2023/04/01 10:44:54;;;;;;;5.57;2.65;;;18.10;86.80;;;;;;5017034;28;20034;-73
2023/04/01 10:47:24;;;;;;;6.65;1.90;;;18.30;84.30;;;;;;5010866;28;20402;-74
2023/04/01 10:50:29;;;;;;;3.88;2.00;;;18.40;83.70;;;;;;5022995;28;20042;-77
2023/04/01 10:53:41;;;;;;;3.88;1.92;;;18.50;82.10;;;;;;4997041;28;20050;-74
2023/04/01 10:56:29;;;;;;;3.97;1.52;;;19.20;82.70;;;;;;5025980;28;20170;-73
2023/04/01 10:59:28;;;;;;;2.45;1.50;;;19.60;78.50;;;;;;5006493;23;20756;-72
2023/04/01 11:02:17;;;;;;;4.82;1.60;;;19.70;76.30;;;;;;4995076;28;20045;-74
2023/04/01 11:05:18;;;;;;;3.17;1.33;;;19.40;75.20;;;;;;4979495;28;20075;-74
2023/04/01 11:08:30;;;;;;;5.75;3.00;;;18.90;75.40;;;;;;4986636;28;20125;-75
2023/04/01 11:11:35;;;;;;;3.45;1.80;;;18.90;75.90;;;;;;4977306;28;20038;-77
2023/04/01 11:14:51;;;;;;;10.70;6.32;;;18.90;75.10;;;;;;4996235;28;20050;-76
2023/04/01 11:17:47;;;;;;;10.27;5.85;;;19.40;74.50;;;;;;5062189;23;20124;-75
2023/04/01 11:21:36;;;;;;;4.75;2.17;;;19.20;74.30;;;;;;5000735;28;20583;-77
2023/04/01 11:24:56;;;;;;;16.83;6.78;;;19.00;74.70;;;;;;5013086;28;20038;-79
2023/04/01 11:27:57;;;;;;;6.53;1.90;;;19.00;75.00;;;;;;5011202;28;20586;-80
2023/04/01 11:30:55;;;;;;;3.72;1.58;;;19.00;74.00;;;;;;5021850;28;20119;-72
2023/04/01 11:33:34;;;;;;;2.58;1.60;;;18.80;74.40;;;;;;5025065;28;20045;-78
2023/04/01 11:36:27;;;;;;;3.53;1.67;;;18.60;74.80;;;;;;5022920;28;20060;-79
2023/04/01 11:39:12;;;;;;;4.97;2.03;;;18.40;75.40;;;;;;5031133;28;20033;-73
2023/04/01 11:42:02;;;;;;;5.13;2.17;;;18.60;77.70;;;;;;5005480;28;20045;-78
2023/04/01 11:44:30;;;;;;;4.30;2.28;;;18.70;79.10;;;;;;5019422;28;20041;-73
2023/04/01 11:47:11;;;;;;;4.45;2.45;;;18.70;80.00;;;;;;5030469;28;20048;-78
2023/04/01 11:50:10;;;;;;;15.25;2.92;;;18.80;80.40;;;;;;5005416;28;20420;-77
2023/04/01 11:53:15;;;;;;;6.25;2.10;;;18.70;79.90;;;;;;5020941;28;20418;-76
2023/04/01 11:55:56;;;;;;;8.45;2.95;;;18.70;79.90;;;;;;4999105;28;20386;-73
2023/04/01 11:58:26;;;;;;;14.88;2.88;;;18.80;80.00;;;;;;5012262;28;20069;-77
2023/04/01 12:01:14;;;;;;;15.98;3.20;;;18.80;80.00;;;;;;5013511;28;20033;-77
2023/04/01 12:04:15;;;;;;;3.75;1.88;;;18.70;80.30;;;;;;5021682;28;20397;-76
2023/04/01 12:07:10;;;;;;;8.30;2.58;;;18.60;81.10;;;;;;5006268;28;20049;-80
2023/04/01 12:10:03;;;;;;;5.60;2.17;;;18.50;81.10;;;;;;4986884;28;20046;-75
2023/04/01 12:12:57;;;;;;;6.30;3.67;;;18.50;80.90;;;;;;4998489;28;20456;-76
2023/04/01 12:15:37;;;;;;;13.95;8.95;;;18.00;82.10;;;;;;4994915;28;20108;-76
2023/04/01 12:18:34;;;;;;;5.40;3.13;;;17.70;83.00;;;;;;5005304;28;20050;-78
2023/04/01 12:21:36;;;;;;;9.88;5.75;;;17.50;84.90;;;;;;4984582;28;20061;-79
2023/04/01 12:24:22;;;;;;;5.15;2.95;;;17.80;80.70;;;;;;5004572;28;20041;-78
2023/04/01 12:27:01;;;;;;;9.88;3.45;;;16.90;84.80;;;;;;4995675;28;20057;-77
2023/04/01 12:30:07;;;;;;;4.38;1.90;;;17.40;84.80;;;;;;4990162;28;20108;-76
2023/04/01 12:33:14;;;;;;;4.00;1.55;;;18.80;79.70;;;;;;4977446;28;20100;-77
2023/04/01 12:36:02;;;;;;;3.72;1.40;;;20.20;76.80;;;;;;5000002;28;20081;-78
2023/04/01 12:38:50;;;;;;;4.78;1.50;;;18.90;78.70;;;;;;5011135;28;20116;-79
2023/04/01 12:41:26;;;;;;;3.10;1.27;;;21.00;72.80;;;;;;4991818;28;20100;-78
2023/04/01 12:44:07;;;;;;;4.03;1.20;;;20.00;75.10;;;;;;5011241;28;20068;-81
2023/04/01 12:47:14;;;;;;;5.97;2.38;;;20.90;72.20;;;;;;4990417;28;20057;-78
2023/04/01 12:50:11;;;;;;;6.20;2.15;;;21.60;69.20;;;;;;4998494;28;20074;-76
2023/04/01 12:53:08;;;;;;;3.95;1.17;;;21.50;69.80;;;;;;4995685;28;20074;-80
2023/04/01 12:55:42;;;;;;;4.07;1.40;;;23.50;63.00;;;;;;4999973;28;20038;-78
2023/04/01 12:58:46;;;;;;;1.58;1.00;;;24.70;61.00;;;;;;5043358;23;20063;-72
2023/04/01 13:01:22;;;;;;;3.53;1.20;;;27.10;56.30;;;;;;5024668;28;20043;-75
2023/04/01 13:03:52;;;;;;;2.85;1.20;;;26.50;54.40;;;;;;5038965;28;20514;-76
2023/04/01 13:06:28;;;;;;;2.00;0.88;;;27.40;52.90;;;;;;5042251;28;20045;-78
2023/04/01 13:09:16;;;;;;;2.95;1.00;;;27.40;52.60;;;;;;5026934;28;20138;-75
2023/04/01 13:12:05;;;;;;;2.67;1.00;;;28.50;50.80;;;;;;5038603;28;20046;-76
2023/04/01 13:15:05;;;;;;;4.05;1.27;;;29.40;49.00;;;;;;5035999;28;20044;-75
2023/04/01 13:18:10;;;;;;;2.65;1.20;;;29.50;48.10;;;;;;5026331;28;20072;-75
2023/04/01 13:20:54;;;;;;;3.13;1.08;;;30.80;46.50;;;;;;5014996;28;20060;-73
2023/04/01 13:23:34;;;;;;;4.22;1.10;;;27.90;48.00;;;;;;5043328;28;20052;-78
2023/04/01 13:26:26;;;;;;;2.40;0.95;;;28.30;47.40;;;;;;5000899;28;20529;-79
2023/04/01 13:29:17;;;;;;;1.98;0.85;;;25.10;48.50;;;;;;5015637;28;20048;-76
2023/04/01 13:32:17;;;;;;;4.40;0.85;;;23.20;51.60;;;;;;4996420;28;20063;-77
2023/04/01 13:34:50;;;;;;;3.38;1.20;;;24.10;50.30;;;;;;5022272;28;20803;-78
2023/04/01 13:37:31;;;;;;;4.05;1.65;;;24.50;48.70;;;;;;5033181;28;20049;-78
2023/04/01 13:40:39;;;;;;;3.50;1.25;;;23.20;48.40;;;;;;5021764;28;20048;-78
2023/04/01 13:44:07;;;;;;;3.83;1.17;;;23.50;47.60;;;;;;4980281;28;20038;-78
2023/04/01 13:46:42;;;;;;;6.32;1.48;;;22.70;47.30;;;;;;4975618;28;20046;-81
2023/04/01 13:49:48;;;;;;;3.42;1.40;;;22.80;47.90;;;;;;4978074;28;20046;-80